sensor_id;sensor_type;location;lat;lon;timestamp;pressure;altitude;pressure_sealevel;temperature;humidity
77889;BME280;67082;41.704;44.768;2023-06-24T00:00:05;95781.00;;;19.40;70.05
77889;BME280;67082;41.704;44.768;2023-06-24T00:02:54;95781.25;;;19.36;69.79
77889;BME280;67082;41.704;44.768;2023-06-24T00:05:23;95784.34;;;19.38;70.29
77889;BME280;67082;41.704;44.768;2023-06-24T00:07:51;95780.75;;;19.38;69.91
77889;BME280;67082;41.704;44.768;2023-06-24T00:10:19;95769.50;;;19.38;69.79
77889;BME280;67082;41.704;44.768;2023-06-24T00:12:47;95777.69;;;19.36;70.36
77889;BME280;67082;41.704;44.768;2023-06-24T00:15:16;95775.88;;;19.27;70.09
77889;BME280;67082;41.704;44.768;2023-06-24T00:17:45;95775.13;;;19.32;70.02
77889;BME280;67082;41.704;44.768;2023-06-24T00:20:13;95777.91;;;19.27;70.89
77889;BME280;67082;41.704;44.768;2023-06-24T00:22:42;95782.78;;;19.32;70.32
77889;BME280;67082;41.704;44.768;2023-06-24T00:25:12;95783.28;;;19.30;70.43
77889;BME280;67082;41.704;44.768;2023-06-24T00:27:41;95781.00;;;19.34;70.66
77889;BME280;67082;41.704;44.768;2023-06-24T00:30:10;95781.25;;;19.36;70.85
77889;BME280;67082;41.704;44.768;2023-06-24T00:32:40;95792.50;;;19.36;70.77
77889;BME280;67082;41.704;44.768;2023-06-24T00:35:09;95792.00;;;19.38;70.56
77889;BME280;67082;41.704;44.768;2023-06-24T00:37:40;95784.34;;;19.38;70.01
77889;BME280;67082;41.704;44.768;2023-06-24T00:40:11;95790.44;;;19.31;70.17
77889;BME280;67082;41.704;44.768;2023-06-24T00:42:39;95791.50;;;19.39;70.89
77889;BME280;67082;41.704;44.768;2023-06-24T00:45:09;95787.94;;;19.44;70.70
77889;BME280;67082;41.704;44.768;2023-06-24T00:47:39;95800.69;;;19.45;71.04
77889;BME280;67082;41.704;44.768;2023-06-24T00:50:10;95799.41;;;19.46;72.27
77889;BME280;67082;41.704;44.768;2023-06-24T00:52:40;95797.09;;;19.45;72.12
77889;BME280;67082;41.704;44.768;2023-06-24T00:55:16;95798.88;;;19.42;72.91
77889;BME280;67082;41.704;44.768;2023-06-24T00:57:47;95800.16;;;19.41;73.04
77889;BME280;67082;41.704;44.768;2023-06-24T01:00:21;95801.94;;;19.39;73.23
77889;BME280;67082;41.704;44.768;2023-06-24T01:02:50;95797.59;;;19.43;73.00
77889;BME280;67082;41.704;44.768;2023-06-24T01:05:20;95796.06;;;19.42;73.14
77889;BME280;67082;41.704;44.768;2023-06-24T01:07:51;95805.78;;;19.41;73.25
77889;BME280;67082;41.704;44.768;2023-06-24T01:10:24;95803.47;;;19.40;73.52
77889;BME280;67082;41.704;44.768;2023-06-24T01:12:55;95812.16;;;19.36;73.42
77889;BME280;67082;41.704;44.768;2023-06-24T01:15:24;95806.28;;;19.34;73.88
77889;BME280;67082;41.704;44.768;2023-06-24T01:18:03;95813.44;;;19.30;74.39
77889;BME280;67082;41.704;44.768;2023-06-24T01:34:30;95823.41;;;19.31;75.73
77889;BME280;67082;41.704;44.768;2023-06-24T01:40:04;95828.22;;;19.30;75.12
77889;BME280;67082;41.704;44.768;2023-06-24T01:42:42;95833.09;;;19.30;74.94
77889;BME280;67082;41.704;44.768;2023-06-24T01:45:14;95838.19;;;19.31;75.25
77889;BME280;67082;41.704;44.768;2023-06-24T01:47:46;95834.88;;;19.27;75.27
77889;BME280;67082;41.704;44.768;2023-06-24T01:50:20;95839.22;;;19.28;75.08
77889;BME280;67082;41.704;44.768;2023-06-24T01:52:52;95844.31;;;19.24;75.60
77889;BME280;67082;41.704;44.768;2023-06-24T01:55:21;95852.22;;;19.26;75.83
77889;BME280;67082;41.704;44.768;2023-06-24T01:57:52;95849.91;;;19.24;75.60
77889;BME280;67082;41.704;44.768;2023-06-24T02:00:22;95851.19;;;19.23;76.13
77889;BME280;67082;41.704;44.768;2023-06-24T02:02:51;95854.25;;;19.25;75.44
77889;BME280;67082;41.704;44.768;2023-06-24T02:05:21;95859.63;;;19.23;75.22
77889;BME280;67082;41.704;44.768;2023-06-24T02:07:52;95854.47;;;19.16;74.43
77889;BME280;67082;41.704;44.768;2023-06-24T02:10:21;95856.25;;;19.19;75.86
77889;BME280;67082;41.704;44.768;2023-06-24T02:12:52;95854.72;;;19.18;76.42
77889;BME280;67082;41.704;44.768;2023-06-24T02:15:22;95857.28;;;19.16;76.30
77889;BME280;67082;41.704;44.768;2023-06-24T02:17:52;95860.84;;;19.17;75.91
77889;BME280;67082;41.704;44.768;2023-06-24T02:20:25;95864.44;;;19.17;74.74
77889;BME280;67082;41.704;44.768;2023-06-24T02:22:56;95866.53;;;19.22;74.64
77889;BME280;67082;41.704;44.768;2023-06-24T02:25:26;95863.72;;;19.22;74.46
77889;BME280;67082;41.704;44.768;2023-06-24T02:27:56;95870.03;;;19.17;75.25
77889;BME280;67082;41.704;44.768;2023-06-24T02:30:28;95869.25;;;19.17;75.32
77889;BME280;67082;41.704;44.768;2023-06-24T02:32:57;95875.72;;;19.23;75.46
77889;BME280;67082;41.704;44.768;2023-06-24T02:35:25;95875.44;;;19.21;76.19
77889;BME280;67082;41.704;44.768;2023-06-24T02:37:54;95873.34;;;19.16;76.24
77889;BME280;67082;41.704;44.768;2023-06-24T02:40:23;95876.22;;;19.21;76.31
77889;BME280;67082;41.704;44.768;2023-06-24T02:42:52;95883.31;;;19.17;76.08
77889;BME280;67082;41.704;44.768;2023-06-24T02:45:20;95880.00;;;19.18;75.72
77889;BME280;67082;41.704;44.768;2023-06-24T02:47:50;95881.53;;;19.19;76.38
77889;BME280;67082;41.704;44.768;2023-06-24T02:50:19;95880.25;;;19.20;75.01
77889;BME280;67082;41.704;44.768;2023-06-24T02:52:51;95886.19;;;19.22;76.89
77889;BME280;67082;41.704;44.768;2023-06-24T02:55:24;95886.13;;;19.17;76.94
77889;BME280;67082;41.704;44.768;2023-06-24T02:57:58;95883.84;;;19.15;76.70
77889;BME280;67082;41.704;44.768;2023-06-24T03:00:45;95885.31;;;19.11;76.85
77889;BME280;67082;41.704;44.768;2023-06-24T03:03:29;95885.59;;;19.13;77.36
77889;BME280;67082;41.704;44.768;2023-06-24T03:05:59;95886.34;;;19.13;76.87
77889;BME280;67082;41.704;44.768;2023-06-24T03:08:31;95891.22;;;19.13;77.78
77889;BME280;67082;41.704;44.768;2023-06-24T03:11:00;95891.72;;;19.11;78.87
77889;BME280;67082;41.704;44.768;2023-06-24T03:13:31;95890.19;;;19.10;78.34
77889;BME280;67082;41.704;44.768;2023-06-24T03:16:07;95895.28;;;19.12;79.30
77889;BME280;67082;41.704;44.768;2023-06-24T03:19:12;95891.47;;;19.09;79.03
77889;BME280;67082;41.704;44.768;2023-06-24T03:21:42;95893.75;;;19.11;78.00
77889;BME280;67082;41.704;44.768;2023-06-24T03:24:13;95889.44;;;19.15;78.54
77889;BME280;67082;41.704;44.768;2023-06-24T03:26:44;95885.88;;;19.15;78.80
77889;BME280;67082;41.704;44.768;2023-06-24T03:29:14;95885.63;;;19.18;79.07
77889;BME280;67082;41.704;44.768;2023-06-24T03:32:03;95888.44;;;19.18;78.91
77889;BME280;67082;41.704;44.768;2023-06-24T03:34:32;95887.66;;;19.18;77.96
77889;BME280;67082;41.704;44.768;2023-06-24T03:37:00;95894.63;;;19.22;77.54
77889;BME280;67082;41.704;44.768;2023-06-24T03:39:28;95894.63;;;19.22;77.84
77889;BME280;67082;41.704;44.768;2023-06-24T03:41:58;95890.53;;;19.23;78.48
77889;BME280;67082;41.704;44.768;2023-06-24T03:44:26;95886.44;;;19.24;78.46
77889;BME280;67082;41.704;44.768;2023-06-24T03:46:54;95891.09;;;19.33;79.14
77889;BME280;67082;41.704;44.768;2023-06-24T03:49:23;95889.56;;;19.37;78.67
77889;BME280;67082;41.704;44.768;2023-06-24T03:51:51;95892.41;;;19.43;78.15
77889;BME280;67082;41.704;44.768;2023-06-24T03:54:20;95890.88;;;19.47;77.78
77889;BME280;67082;41.704;44.768;2023-06-24T03:56:49;95893.94;;;19.49;76.64
77889;BME280;67082;41.704;44.768;2023-06-24T03:59:19;95908.81;;;19.55;76.48
77889;BME280;67082;41.704;44.768;2023-06-24T04:01:48;95907.00;;;19.52;76.53
77889;BME280;67082;41.704;44.768;2023-06-24T04:04:20;95906.00;;;19.55;76.49
77889;BME280;67082;41.704;44.768;2023-06-24T04:06:49;95916.22;;;19.58;76.70
77889;BME280;67082;41.704;44.768;2023-06-24T04:09:18;95916.53;;;19.66;76.34
77889;BME280;67082;41.704;44.768;2023-06-24T04:11:46;95919.09;;;19.69;75.82
77889;BME280;67082;41.704;44.768;2023-06-24T04:14:15;95921.69;;;19.78;75.55
77889;BME280;67082;41.704;44.768;2023-06-24T04:16:43;95930.13;;;19.78;76.14
77889;BME280;67082;41.704;44.768;2023-06-24T04:19:12;95924.25;;;19.87;74.74
77889;BME280;67082;41.704;44.768;2023-06-24T04:21:39;95935.78;;;20.00;75.25
77889;BME280;67082;41.704;44.768;2023-06-24T04:24:09;95930.50;;;20.13;74.34
77889;BME280;67082;41.704;44.768;2023-06-24T04:26:37;95929.16;;;20.03;73.79
77889;BME280;67082;41.704;44.768;2023-06-24T04:29:05;95929.47;;;20.11;74.86
77889;BME280;67082;41.704;44.768;2023-06-24T04:31:33;95932.28;;;20.16;75.16
77889;BME280;67082;41.704;44.768;2023-06-24T04:34:03;95937.44;;;20.29;75.13
77889;BME280;67082;41.704;44.768;2023-06-24T04:36:32;95930.50;;;20.35;75.69
77889;BME280;67082;41.704;44.768;2023-06-24T04:39:00;95939.75;;;20.36;75.22
77889;BME280;67082;41.704;44.768;2023-06-24T04:41:29;95932.56;;;20.40;75.59
77889;BME280;67082;41.704;44.768;2023-06-24T04:43:58;95928.75;;;20.43;75.59
77889;BME280;67082;41.704;44.768;2023-06-24T04:46:25;95929.75;;;20.51;76.04
77889;BME280;67082;41.704;44.768;2023-06-24T04:48:54;95940.03;;;20.54;75.25
77889;BME280;67082;41.704;44.768;2023-06-24T04:51:23;95930.03;;;20.59;74.33
77889;BME280;67082;41.704;44.768;2023-06-24T04:53:51;95934.38;;;20.54;73.46
77889;BME280;67082;41.704;44.768;2023-06-24T04:56:19;95936.94;;;20.52;74.36
77889;BME280;67082;41.704;44.768;2023-06-24T04:58:48;95936.41;;;20.43;75.08
77889;BME280;67082;41.704;44.768;2023-06-24T05:01:17;95931.06;;;20.45;74.48
77889;BME280;67082;41.704;44.768;2023-06-24T05:03:47;95931.31;;;20.58;74.66
77889;BME280;67082;41.704;44.768;2023-06-24T05:06:15;95927.44;;;20.33;74.19
77889;BME280;67082;41.704;44.768;2023-06-24T05:08:43;95932.84;;;20.42;73.67
77889;BME280;67082;41.704;44.768;2023-06-24T05:11:11;95933.34;;;20.41;74.58
77889;BME280;67082;41.704;44.768;2023-06-24T05:13:40;95936.19;;;20.52;74.17
77889;BME280;67082;41.704;44.768;2023-06-24T05:16:08;95924.13;;;20.40;74.77
77889;BME280;67082;41.704;44.768;2023-06-24T05:18:37;95928.75;;;20.65;74.67
77889;BME280;67082;41.704;44.768;2023-06-24T05:21:05;95935.66;;;20.64;73.16
77889;BME280;67082;41.704;44.768;2023-06-24T05:23:34;95930.53;;;20.57;72.80
77889;BME280;67082;41.704;44.768;2023-06-24T05:26:04;95924.38;;;20.64;72.47
77889;BME280;67082;41.704;44.768;2023-06-24T05:28:33;95936.16;;;20.68;72.72
77889;BME280;67082;41.704;44.768;2023-06-24T05:31:01;95929.00;;;20.73;72.80
77889;BME280;67082;41.704;44.768;2023-06-24T05:33:29;95926.22;;;20.89;72.61
77889;BME280;67082;41.704;44.768;2023-06-24T05:35:57;95923.13;;;20.93;73.25
77889;BME280;67082;41.704;44.768;2023-06-24T05:38:26;95919.53;;;20.98;74.05
77889;BME280;67082;41.704;44.768;2023-06-24T05:40:54;95919.03;;;20.94;75.13
77889;BME280;67082;41.704;44.768;2023-06-24T05:43:23;95920.56;;;21.11;74.27
77889;BME280;67082;41.704;44.768;2023-06-24T05:45:50;95914.91;;;21.11;73.72
77889;BME280;67082;41.704;44.768;2023-06-24T05:48:20;95918.22;;;21.15;72.99
77889;BME280;67082;41.704;44.768;2023-06-24T05:50:49;95909.50;;;21.19;72.77
77889;BME280;67082;41.704;44.768;2023-06-24T05:53:17;95916.69;;;21.03;71.75
77889;BME280;67082;41.704;44.768;2023-06-24T05:55:45;95912.59;;;21.04;71.68
77889;BME280;67082;41.704;44.768;2023-06-24T05:58:13;95913.88;;;21.03;71.73
77889;BME280;67082;41.704;44.768;2023-06-24T06:00:41;95917.72;;;21.22;71.43
77889;BME280;67082;41.704;44.768;2023-06-24T06:03:10;95922.53;;;21.27;71.39
77889;BME280;67082;41.704;44.768;2023-06-24T06:05:39;95910.97;;;21.47;70.04
77889;BME280;67082;41.704;44.768;2023-06-24T06:08:10;95909.66;;;21.48;69.82
77889;BME280;67082;41.704;44.768;2023-06-24T06:10:37;95916.28;;;21.67;69.17
77889;BME280;67082;41.704;44.768;2023-06-24T06:13:06;95909.81;;;21.83;68.76
77889;BME280;67082;41.704;44.768;2023-06-24T06:15:34;95911.56;;;21.92;68.84
77889;BME280;67082;41.704;44.768;2023-06-24T06:18:03;95904.09;;;22.00;67.61
77889;BME280;67082;41.704;44.768;2023-06-24T06:20:32;95908.97;;;21.99;64.92
77889;BME280;67082;41.704;44.768;2023-06-24T06:23:01;95909.16;;;22.07;65.70
77889;BME280;67082;41.704;44.768;2023-06-24T06:25:29;95918.88;;;22.11;66.96
77889;BME280;67082;41.704;44.768;2023-06-24T06:27:58;95914.03;;;22.06;67.19
77889;BME280;67082;41.704;44.768;2023-06-24T06:30:26;95927.72;;;21.91;66.12
77889;BME280;67082;41.704;44.768;2023-06-24T06:32:55;95927.97;;;21.93;66.94
77889;BME280;67082;41.704;44.768;2023-06-24T06:35:23;95921.59;;;21.87;67.34
77889;BME280;67082;41.704;44.768;2023-06-24T06:37:51;95926.72;;;21.89;66.91
77889;BME280;67082;41.704;44.768;2023-06-24T06:40:23;95926.16;;;21.96;67.90
77889;BME280;67082;41.704;44.768;2023-06-24T06:42:52;95926.63;;;22.05;67.67
77889;BME280;67082;41.704;44.768;2023-06-24T06:45:20;95931.28;;;21.97;67.80
77889;BME280;67082;41.704;44.768;2023-06-24T06:47:49;95931.22;;;22.08;68.05
77889;BME280;67082;41.704;44.768;2023-06-24T06:50:18;95931.53;;;21.99;66.91
77889;BME280;67082;41.704;44.768;2023-06-24T06:52:46;95928.22;;;21.95;66.71
77889;BME280;67082;41.704;44.768;2023-06-24T06:55:14;95937.63;;;22.14;67.30
77889;BME280;67082;41.704;44.768;2023-06-24T06:57:43;95928.13;;;22.12;65.95
77889;BME280;67082;41.704;44.768;2023-06-24T07:00:11;95921.31;;;22.31;65.60
77889;BME280;67082;41.704;44.768;2023-06-24T07:02:40;95920.81;;;22.33;65.77
77889;BME280;67082;41.704;44.768;2023-06-24T07:05:08;95922.19;;;22.61;64.45
77889;BME280;67082;41.704;44.768;2023-06-24T07:07:38;95921.91;;;22.59;64.91
77889;BME280;67082;41.704;44.768;2023-06-24T07:10:06;95923.47;;;22.60;64.10
77889;BME280;67082;41.704;44.768;2023-06-24T07:12:35;95928.75;;;22.75;64.11
77889;BME280;67082;41.704;44.768;2023-06-24T07:15:04;95923.56;;;22.79;62.76
77889;BME280;67082;41.704;44.768;2023-06-24T07:17:33;95922.13;;;22.96;62.17
77889;BME280;67082;41.704;44.768;2023-06-24T07:20:00;95915.06;;;23.08;61.94
77889;BME280;67082;41.704;44.768;2023-06-24T07:22:31;95919.72;;;23.35;61.26
77889;BME280;67082;41.704;44.768;2023-06-24T07:25:00;95918.53;;;23.25;60.14
77889;BME280;67082;41.704;44.768;2023-06-24T07:27:30;95913.47;;;23.42;60.33
77889;BME280;67082;41.704;44.768;2023-06-24T07:29:58;95917.59;;;23.41;60.56
77889;BME280;67082;41.704;44.768;2023-06-24T07:32:27;95918.81;;;23.46;60.67
77889;BME280;67082;41.704;44.768;2023-06-24T07:34:55;95905.72;;;23.67;60.51
77889;BME280;67082;41.704;44.768;2023-06-24T07:37:24;95910.97;;;23.57;61.02
77889;BME280;67082;41.704;44.768;2023-06-24T07:39:52;95909.09;;;23.65;59.91
77889;BME280;67082;41.704;44.768;2023-06-24T07:42:21;95905.13;;;23.74;60.20
77889;BME280;67082;41.704;44.768;2023-06-24T07:44:49;95922.63;;;23.72;59.84
77889;BME280;67082;41.704;44.768;2023-06-24T07:47:18;95907.00;;;23.66;60.04
77889;BME280;67082;41.704;44.768;2023-06-24T07:49:46;95909.25;;;23.73;59.70
77889;BME280;67082;41.704;44.768;2023-06-24T07:52:14;95903.59;;;23.73;59.21
77889;BME280;67082;41.704;44.768;2023-06-24T07:54:43;95899.81;;;23.65;58.55
77889;BME280;67082;41.704;44.768;2023-06-24T07:57:11;95902.78;;;23.54;58.74
77889;BME280;67082;41.704;44.768;2023-06-24T08:02:07;95895.22;;;23.19;58.57
77889;BME280;67082;41.704;44.768;2023-06-24T08:04:35;95902.69;;;22.87;59.20
77889;BME280;67082;41.704;44.768;2023-06-24T08:07:05;95895.41;;;22.97;59.66
77889;BME280;67082;41.704;44.768;2023-06-24T08:09:33;95899.25;;;22.94;59.43
77889;BME280;67082;41.704;44.768;2023-06-24T08:12:01;95896.69;;;22.96;59.59
77889;BME280;67082;41.704;44.768;2023-06-24T08:14:29;95895.28;;;23.08;59.46
77889;BME280;67082;41.704;44.768;2023-06-24T08:16:58;95891.78;;;22.97;59.98
77889;BME280;67082;41.704;44.768;2023-06-24T08:19:26;95890.53;;;22.98;59.87
77889;BME280;67082;41.704;44.768;2023-06-24T08:21:54;95891.06;;;22.91;59.36
77889;BME280;67082;41.704;44.768;2023-06-24T08:24:23;95885.63;;;22.98;60.42
77889;BME280;67082;41.704;44.768;2023-06-24T08:26:51;95889.44;;;23.01;59.85
77889;BME280;67082;41.704;44.768;2023-06-24T08:29:20;95885.63;;;22.98;59.66
77889;BME280;67082;41.704;44.768;2023-06-24T08:31:49;95875.94;;;22.88;59.84
77889;BME280;67082;41.704;44.768;2023-06-24T08:34:17;95873.97;;;23.07;59.47
77889;BME280;67082;41.704;44.768;2023-06-24T08:36:45;95875.63;;;22.97;59.37
77889;BME280;67082;41.704;44.768;2023-06-24T08:39:13;95871.97;;;23.02;59.48
77889;BME280;67082;41.704;44.768;2023-06-24T08:41:42;95874.53;;;23.00;59.74
77889;BME280;67082;41.704;44.768;2023-06-24T08:44:11;95868.66;;;22.98;59.13
77889;BME280;67082;41.704;44.768;2023-06-24T08:46:40;95862.13;;;23.09;59.95
77889;BME280;67082;41.704;44.768;2023-06-24T08:52:25;95862.59;;;23.13;59.18
77889;BME280;67082;41.704;44.768;2023-06-24T08:54:55;95854.75;;;23.00;58.91
77889;BME280;67082;41.704;44.768;2023-06-24T08:57:25;95854.63;;;23.11;58.27
77889;BME280;67082;41.704;44.768;2023-06-24T08:59:53;95842.31;;;23.09;58.59
77889;BME280;67082;41.704;44.768;2023-06-24T09:02:22;95837.59;;;23.22;59.44
77889;BME280;67082;41.704;44.768;2023-06-24T09:04:53;95844.00;;;23.23;57.75
77889;BME280;67082;41.704;44.768;2023-06-24T09:07:28;95829.81;;;23.28;58.56
77889;BME280;67082;41.704;44.768;2023-06-24T09:09:56;95839.69;;;23.16;56.91
77889;BME280;67082;41.704;44.768;2023-06-24T09:12:25;95833.44;;;23.23;57.60
77889;BME280;67082;41.704;44.768;2023-06-24T09:14:54;95829.81;;;23.28;56.65
77889;BME280;67082;41.704;44.768;2023-06-24T09:17:22;95820.41;;;23.20;56.39
77889;BME280;67082;41.704;44.768;2023-06-24T09:19:51;95815.25;;;23.19;56.01
77889;BME280;67082;41.704;44.768;2023-06-24T09:22:19;95816.34;;;23.34;56.11
77889;BME280;67082;41.704;44.768;2023-06-24T09:27:17;95804.75;;;23.38;56.13
77889;BME280;67082;41.704;44.768;2023-06-24T09:29:49;95808.72;;;23.48;57.17
77889;BME280;67082;41.704;44.768;2023-06-24T09:32:18;95802.31;;;23.47;55.96
77889;BME280;67082;41.704;44.768;2023-06-24T09:34:46;95797.88;;;23.33;54.77
77889;BME280;67082;41.704;44.768;2023-06-24T09:37:21;95807.81;;;23.40;55.46
77889;BME280;67082;41.704;44.768;2023-06-24T09:39:51;95792.69;;;23.37;55.38
77889;BME280;67082;41.704;44.768;2023-06-24T09:42:21;95784.88;;;23.43;54.67
77889;BME280;67082;41.704;44.768;2023-06-24T09:44:55;95797.50;;;23.42;55.18
77889;BME280;67082;41.704;44.768;2023-06-24T09:47:24;95794.53;;;23.53;55.13
77889;BME280;67082;41.704;44.768;2023-06-24T09:49:54;95796.06;;;23.54;55.12
77889;BME280;67082;41.704;44.768;2023-06-24T09:52:23;95787.88;;;23.51;53.84
77889;BME280;67082;41.704;44.768;2023-06-24T09:54:53;95778.69;;;23.63;54.83
77889;BME280;67082;41.704;44.768;2023-06-24T09:57:28;95773.13;;;23.76;54.21
77889;BME280;67082;41.704;44.768;2023-06-24T09:59:58;95774.09;;;23.79;53.79
77889;BME280;67082;41.704;44.768;2023-06-24T10:02:31;95770.28;;;23.76;52.62
77889;BME280;67082;41.704;44.768;2023-06-24T10:05:00;95770.97;;;23.82;53.55
77889;BME280;67082;41.704;44.768;2023-06-24T10:07:31;95773.88;;;23.95;53.92
77889;BME280;67082;41.704;44.768;2023-06-24T10:10:03;95773.88;;;23.95;52.98
77889;BME280;67082;41.704;44.768;2023-06-24T10:12:35;95765.59;;;23.97;52.81
77889;BME280;67082;41.704;44.768;2023-06-24T10:15:04;95776.06;;;24.02;51.66
77889;BME280;67082;41.704;44.768;2023-06-24T10:17:36;95774.56;;;24.01;52.45
77889;BME280;67082;41.704;44.768;2023-06-24T10:20:06;95775.56;;;24.04;52.33
77889;BME280;67082;41.704;44.768;2023-06-24T10:22:34;95765.75;;;24.05;51.78
77889;BME280;67082;41.704;44.768;2023-06-24T10:25:07;95773.72;;;24.06;51.95
77889;BME280;67082;41.704;44.768;2023-06-24T10:27:39;95767.16;;;23.98;51.75
77889;BME280;67082;41.704;44.768;2023-06-24T10:30:08;95769.88;;;24.04;51.74
77889;BME280;67082;41.704;44.768;2023-06-24T10:32:42;95761.91;;;24.02;51.13
77889;BME280;67082;41.704;44.768;2023-06-24T10:35:28;95757.41;;;24.12;51.47
77889;BME280;67082;41.704;44.768;2023-06-24T10:38:00;95754.94;;;24.03;50.68
77889;BME280;67082;41.704;44.768;2023-06-24T10:40:44;95749.75;;;24.07;51.10
77889;BME280;67082;41.704;44.768;2023-06-24T10:45:54;95744.75;;;24.13;50.03
77889;BME280;67082;41.704;44.768;2023-06-24T10:48:24;95745.22;;;24.17;51.31
77889;BME280;67082;41.704;44.768;2023-06-24T10:50:52;95750.25;;;24.24;50.96
77889;BME280;67082;41.704;44.768;2023-06-24T10:53:21;95748.41;;;24.27;50.65
77889;BME280;67082;41.704;44.768;2023-06-24T10:55:50;95753.06;;;24.24;50.25
77889;BME280;67082;41.704;44.768;2023-06-24T10:58:18;95748.06;;;24.30;50.31
77889;BME280;67082;41.704;44.768;2023-06-24T11:00:46;95746.13;;;24.38;50.03
77889;BME280;67082;41.704;44.768;2023-06-24T11:03:16;95750.72;;;24.41;50.90
77889;BME280;67082;41.704;44.768;2023-06-24T11:05:46;95751.19;;;24.45;49.73
77889;BME280;67082;41.704;44.768;2023-06-24T11:08:16;95732.88;;;24.46;49.88
77889;BME280;67082;41.704;44.768;2023-06-24T11:10:47;95730.56;;;24.45;50.80
77889;BME280;67082;41.704;44.768;2023-06-24T11:13:20;95732.59;;;24.31;49.28
77889;BME280;67082;41.704;44.768;2023-06-24T11:15:48;95735.75;;;24.28;50.05
77889;BME280;67082;41.704;44.768;2023-06-24T11:18:17;95745.38;;;24.38;50.30
77889;BME280;67082;41.704;44.768;2023-06-24T11:20:45;95733.19;;;24.43;50.34
77889;BME280;67082;41.704;44.768;2023-06-24T11:23:14;95731.00;;;24.49;50.63
77889;BME280;67082;41.704;44.768;2023-06-24T11:25:43;95737.66;;;24.51;51.25
77889;BME280;67082;41.704;44.768;2023-06-24T11:28:17;95731.38;;;24.58;51.14
77889;BME280;67082;41.704;44.768;2023-06-24T11:30:50;95735.75;;;24.59;50.61
77889;BME280;67082;41.704;44.768;2023-06-24T11:33:28;95723.53;;;24.64;51.36
77889;BME280;67082;41.704;44.768;2023-06-24T11:35:58;95723.00;;;24.66;51.48
77889;BME280;67082;41.704;44.768;2023-06-24T11:38:28;95727.03;;;24.57;50.36
77889;BME280;67082;41.704;44.768;2023-06-24T11:41:00;95721.78;;;24.61;51.20
77889;BME280;67082;41.704;44.768;2023-06-24T11:43:29;95722.22;;;24.65;51.26
77889;BME280;67082;41.704;44.768;2023-06-24T11:45:57;95714.06;;;24.75;52.85
77889;BME280;67082;41.704;44.768;2023-06-24T11:48:38;95711.00;;;24.73;52.22
77889;BME280;67082;41.704;44.768;2023-06-24T11:51:15;95708.94;;;24.73;50.92
77889;BME280;67082;41.704;44.768;2023-06-24T11:53:44;95707.41;;;24.72;51.46
77889;BME280;67082;41.704;44.768;2023-06-24T11:56:13;95716.22;;;24.69;50.35
77889;BME280;67082;41.704;44.768;2023-06-24T11:58:43;95704.56;;;24.72;50.92
77889;BME280;67082;41.704;44.768;2023-06-24T12:01:11;95710.16;;;24.78;51.04
77889;BME280;67082;41.704;44.768;2023-06-24T12:03:41;95712.66;;;24.81;51.96
77889;BME280;67082;41.704;44.768;2023-06-24T12:06:09;95707.63;;;24.87;52.31
77889;BME280;67082;41.704;44.768;2023-06-24T12:08:38;95710.47;;;24.87;50.96
77889;BME280;67082;41.704;44.768;2023-06-24T12:11:19;95698.47;;;24.81;51.32
77889;BME280;67082;41.704;44.768;2023-06-24T12:13:48;95697.16;;;24.82;50.91
77889;BME280;67082;41.704;44.768;2023-06-24T12:16:16;95699.00;;;24.80;51.89
77889;BME280;67082;41.704;44.768;2023-06-24T12:18:44;95698.47;;;24.81;50.80
77889;BME280;67082;41.704;44.768;2023-06-24T12:21:12;95694.13;;;24.80;51.46
77889;BME280;67082;41.704;44.768;2023-06-24T12:23:41;95694.78;;;24.86;51.56
77889;BME280;67082;41.704;44.768;2023-06-24T12:26:09;95693.00;;;24.83;51.49
77889;BME280;67082;41.704;44.768;2023-06-24T12:28:37;95684.84;;;24.80;51.33
77889;BME280;67082;41.704;44.768;2023-06-24T12:31:05;95684.75;;;24.85;51.08
77889;BME280;67082;41.704;44.768;2023-06-24T12:33:34;95672.97;;;24.81;51.25
77889;BME280;67082;41.704;44.768;2023-06-24T12:36:02;95680.34;;;24.84;50.96
77889;BME280;67082;41.704;44.768;2023-06-24T12:38:31;95674.28;;;24.80;51.22
77889;BME280;67082;41.704;44.768;2023-06-24T12:40:59;95674.16;;;24.86;50.94
77889;BME280;67082;41.704;44.768;2023-06-24T12:43:28;95669.25;;;24.86;51.35
77889;BME280;67082;41.704;44.768;2023-06-24T12:45:56;95653.78;;;24.87;51.02
77889;BME280;67082;41.704;44.768;2023-06-24T12:48:24;95652.00;;;24.84;50.94
77889;BME280;67082;41.704;44.768;2023-06-24T12:50:52;95650.72;;;24.85;50.86
77889;BME280;67082;41.704;44.768;2023-06-24T12:53:21;95655.63;;;24.85;51.64
77889;BME280;67082;41.704;44.768;2023-06-24T12:55:49;95645.69;;;24.91;52.15
77889;BME280;67082;41.704;44.768;2023-06-24T12:58:21;95642.88;;;24.91;52.37
77889;BME280;67082;41.704;44.768;2023-06-24T13:00:50;95647.03;;;24.90;51.57
77889;BME280;67082;41.704;44.768;2023-06-24T13:03:18;95640.03;;;24.91;51.31
77889;BME280;67082;41.704;44.768;2023-06-24T13:05:46;95634.13;;;24.89;51.10
77889;BME280;67082;41.704;44.768;2023-06-24T13:08:15;95633.03;;;24.92;51.40
77889;BME280;67082;41.704;44.768;2023-06-24T13:10:43;95634.56;;;24.93;51.34
77889;BME280;67082;41.704;44.768;2023-06-24T13:13:11;95627.19;;;24.90;50.81
77889;BME280;67082;41.704;44.768;2023-06-24T13:15:39;95618.97;;;24.87;51.13
77889;BME280;67082;41.704;44.768;2023-06-24T13:18:08;95624.66;;;24.87;51.40
77889;BME280;67082;41.704;44.768;2023-06-24T13:20:36;95617.03;;;24.82;51.13
77889;BME280;67082;41.704;44.768;2023-06-24T13:23:04;95627.28;;;24.85;51.14
77889;BME280;67082;41.704;44.768;2023-06-24T13:25:32;95618.22;;;24.86;50.66
77889;BME280;67082;41.704;44.768;2023-06-24T13:28:01;95612.31;;;24.84;50.59
77889;BME280;67082;41.704;44.768;2023-06-24T13:30:29;95617.25;;;24.84;50.20